createdAt,value
2018-01-29T00:02:32.950Z,2.00
2018-01-29T00:07:36.035Z,2.17
2018-01-29T00:12:39.883Z,1.87
2018-01-29T00:17:43.376Z,1.80
2018-01-29T00:22:46.463Z,1.80
2018-01-29T00:27:50.322Z,1.80
2018-01-29T00:32:53.416Z,1.70
2018-01-29T00:37:58.990Z,1.57
2018-01-29T00:43:02.843Z,2.00
2018-01-29T00:48:05.943Z,1.70
2018-01-29T00:53:09.435Z,1.48
2018-01-29T00:58:12.527Z,1.70
2018-01-29T01:03:15.623Z,1.70
2018-01-29T01:08:19.847Z,1.90
2018-01-29T01:13:23.322Z,1.50
2018-01-29T01:18:26.417Z,1.70
2018-01-29T01:23:29.897Z,1.90
2018-01-29T01:28:33.754Z,2.30
2018-01-29T01:33:37.240Z,2.33
2018-01-29T01:38:41.107Z,2.23
2018-01-29T01:43:44.208Z,2.03
2018-01-29T01:48:48.059Z,1.62
2018-01-29T01:53:51.155Z,1.27
2018-01-29T01:58:55.019Z,1.40
2018-01-29T02:03:58.504Z,1.17
2018-01-29T02:09:01.602Z,1.07
2018-01-29T02:14:05.443Z,1.00
2018-01-29T02:19:08.926Z,1.07
2018-01-29T02:24:13.550Z,0.97
2018-01-29T02:29:17.755Z,0.80
2018-01-29T02:34:20.839Z,0.80
2018-01-29T02:39:23.931Z,0.83
2018-01-29T02:44:27.020Z,0.80
2018-01-29T02:49:30.120Z,0.90
2018-01-29T02:54:34.326Z,0.70
2018-01-29T02:59:37.799Z,1.10
2018-01-29T03:04:40.879Z,0.87
2018-01-29T03:09:44.731Z,0.90
2018-01-29T03:14:47.811Z,0.90
2018-01-29T03:19:50.908Z,1.10
2018-01-29T03:24:54.020Z,0.90
2018-01-29T03:29:57.504Z,1.00
2018-01-29T03:35:01.719Z,0.93
2018-01-29T03:40:04.806Z,0.90
2018-01-29T03:45:07.887Z,0.80
2018-01-29T03:50:10.972Z,0.67
2018-01-29T03:55:14.818Z,0.90
2018-01-29T04:00:18.292Z,0.97
2018-01-29T04:05:22.889Z,0.80
2018-01-29T04:10:25.978Z,0.90
2018-01-29T04:15:29.452Z,1.00
2018-01-29T04:20:32.535Z,0.97
2018-01-29T04:25:35.615Z,1.00
2018-01-29T04:30:38.707Z,0.97
2018-01-29T04:35:42.554Z,0.90
2018-01-29T04:40:45.647Z,0.90
2018-01-29T04:45:51.504Z,0.90
2018-01-29T04:50:54.971Z,1.00
2018-01-29T04:55:58.824Z,0.80
2018-01-29T05:01:03.418Z,0.70
2018-01-29T05:06:08.036Z,0.80
2018-01-29T05:11:11.907Z,0.70
2018-01-29T05:16:14.983Z,0.90
2018-01-29T05:21:18.839Z,0.70
2018-01-29T05:26:21.928Z,0.90
2018-01-29T05:31:25.011Z,0.63
2018-01-29T05:36:28.859Z,0.70
2018-01-29T05:41:31.947Z,0.80
2018-01-29T05:46:36.163Z,0.70
2018-01-29T05:51:40.419Z,1.10
2018-01-29T05:56:43.509Z,0.97
2018-01-29T06:01:46.990Z,1.23
2018-01-29T06:06:50.467Z,1.10
2018-01-29T06:11:53.953Z,1.10
2018-01-29T06:16:57.038Z,0.90
2018-01-29T06:22:00.113Z,0.83
2018-01-29T06:27:03.200Z,1.20
2018-01-29T06:32:06.284Z,0.90
2018-01-29T06:37:10.491Z,1.10
2018-01-29T06:42:14.347Z,1.10
2018-01-29T06:47:18.195Z,1.23
2018-01-29T06:52:21.667Z,1.33
2018-01-29T06:57:26.090Z,1.10
2018-01-29T07:02:29.166Z,1.33
2018-01-29T07:07:33.391Z,1.30
2018-01-29T07:12:36.475Z,1.20
2018-01-29T07:17:40.336Z,1.40
2018-01-29T07:22:43.416Z,1.67
2018-01-29T07:27:47.267Z,1.83
2018-01-29T07:32:50.351Z,1.80
2018-01-29T07:37:54.828Z,1.90
2018-01-29T07:42:58.225Z,2.05
2018-01-29T07:48:13.315Z,1.97
2018-01-29T07:53:17.536Z,1.60
2018-01-29T07:58:21.981Z,1.80
2018-01-29T08:03:25.069Z,1.73
2018-01-29T08:19:22.432Z,2.03
2018-01-29T08:24:26.656Z,2.30
2018-01-29T08:29:31.091Z,2.10
2018-01-29T08:34:35.680Z,2.47
2018-01-29T08:39:38.773Z,2.30
2018-01-29T08:44:41.876Z,2.33
2018-01-29T08:49:44.948Z,2.30
2018-01-29T08:54:49.375Z,2.10
2018-01-29T08:59:53.820Z,2.00
2018-01-29T09:04:58.027Z,2.50
2018-01-29T09:10:01.518Z,2.33
2018-01-29T09:15:05.935Z,2.57
2018-01-29T09:20:10.360Z,2.30
2018-01-29T09:25:14.801Z,2.20
2018-01-29T09:30:18.656Z,3.33
2018-01-29T09:35:22.507Z,2.53
2018-01-29T09:40:25.592Z,2.50
2018-01-29T09:45:30.032Z,2.73
2018-01-29T09:50:33.876Z,2.63
2018-01-29T09:55:36.964Z,3.10
2018-01-29T10:00:41.391Z,3.03
2018-01-29T10:05:45.244Z,2.92
2018-01-29T10:10:48.714Z,2.63
2018-01-29T10:15:51.797Z,3.50
2018-01-29T10:20:54.874Z,2.67
2018-01-29T10:25:57.963Z,3.17
2018-01-29T10:31:01.045Z,2.67
2018-01-29T10:36:05.483Z,2.67
2018-01-29T10:41:08.570Z,2.73
2018-01-29T10:46:12.042Z,3.00
2018-01-29T10:51:15.122Z,2.90
2018-01-29T10:56:18.220Z,2.70
2018-01-29T11:01:22.676Z,2.73
2018-01-29T11:06:26.492Z,2.47
2018-01-29T11:11:31.083Z,2.60
2018-01-29T11:16:34.164Z,2.37
2018-01-29T11:21:37.239Z,2.30
2018-01-29T11:26:41.659Z,2.17
2018-01-29T11:31:45.546Z,2.30
2018-01-29T11:36:48.629Z,1.80
2018-01-29T11:41:53.087Z,1.97
2018-01-29T11:46:56.567Z,1.73
2018-01-29T11:51:59.664Z,1.70
2018-01-29T11:57:03.522Z,1.30
2018-01-29T12:02:07.964Z,1.30
2018-01-29T12:07:12.395Z,1.40
2018-01-29T12:12:15.467Z,1.70
2018-01-29T12:17:20.298Z,1.47
2018-01-29T12:22:24.547Z,1.90
2018-01-29T12:27:28.970Z,1.33
2018-01-29T12:32:32.831Z,1.40
2018-01-29T12:37:35.919Z,1.57
2018-01-29T12:42:40.535Z,1.60
2018-01-29T12:47:44.775Z,1.60
2018-01-29T12:52:48.991Z,1.47
2018-01-29T12:57:52.289Z,1.50
2018-01-29T13:02:56.099Z,1.60
2018-01-29T13:08:00.530Z,1.30
2018-01-29T13:13:03.620Z,1.60
2018-01-29T13:18:07.493Z,1.60
2018-01-29T13:23:10.608Z,1.50
2018-01-29T13:28:13.700Z,1.57
2018-01-29T13:33:16.799Z,1.60
2018-01-29T13:38:20.664Z,1.50
2018-01-29T13:43:23.767Z,1.27
2018-01-29T13:48:30.815Z,1.73
2018-01-29T13:53:34.519Z,1.30
2018-01-29T13:58:43.622Z,1.63
2018-01-29T14:03:46.744Z,1.77
2018-01-29T14:09:11.817Z,1.73
2018-01-29T14:14:14.919Z,1.70
2018-01-29T14:19:18.016Z,2.00
2018-01-29T14:24:21.099Z,1.80
2018-01-29T14:29:25.334Z,2.10
2018-01-29T14:34:29.206Z,2.10
2018-01-29T14:39:33.059Z,1.90
2018-01-29T14:44:36.182Z,2.13
2018-01-29T14:49:41.589Z,2.30
2018-01-29T14:54:45.064Z,2.50
2018-01-29T14:59:48.991Z,2.00
2018-01-29T15:04:54.791Z,2.43
2018-01-29T15:09:58.294Z,2.87
2018-01-29T15:15:02.144Z,3.17
2018-01-29T15:20:05.220Z,3.43
2018-01-29T15:25:09.075Z,7.17
2018-01-29T15:30:13.507Z,2.50
2018-01-29T15:35:16.861Z,4.07
2018-01-29T15:40:19.932Z,2.60
2018-01-29T15:45:24.151Z,2.30
2018-01-29T15:50:28.583Z,2.40
2018-01-29T15:55:33.162Z,2.20
2018-01-29T16:00:37.010Z,2.70
2018-01-29T16:05:40.092Z,2.77
2018-01-29T16:10:44.563Z,2.50
2018-01-29T16:15:48.997Z,2.35
2018-01-29T16:20:53.411Z,2.27
2018-01-29T16:25:57.679Z,2.00
2018-01-29T16:31:00.787Z,2.60
2018-01-29T16:36:04.276Z,2.03
2018-01-29T16:41:07.746Z,2.03
2018-01-29T16:46:12.360Z,3.72
2018-01-29T16:51:17.705Z,3.77
2018-01-29T16:56:21.183Z,3.80
2018-01-29T17:01:25.788Z,3.13
2018-01-29T17:06:30.408Z,1.97
2018-01-29T17:11:33.888Z,2.20
2018-01-29T17:16:36.985Z,2.70
2018-01-29T17:21:40.813Z,2.70
2018-01-29T17:26:45.424Z,1.60
2018-01-29T17:31:48.909Z,2.67
2018-01-29T17:36:52.024Z,4.30
2018-01-29T17:41:55.890Z,1.60
2018-01-29T17:47:00.473Z,2.27
2018-01-29T17:52:05.072Z,1.93
2018-01-29T17:57:08.616Z,2.10
2018-01-29T18:02:12.541Z,3.63
2018-01-29T18:07:16.759Z,1.93
2018-01-29T18:12:21.387Z,1.90
2018-01-29T18:17:25.595Z,1.93
2018-01-29T18:22:29.851Z,3.20
2018-01-29T18:27:34.445Z,1.53
2018-01-29T18:32:38.872Z,2.00
2018-01-29T18:37:42.719Z,3.67
2018-01-29T18:42:47.855Z,2.80
2018-01-29T18:47:51.691Z,2.30
2018-01-29T18:52:55.947Z,1.53
2018-01-29T18:58:00.400Z,1.60
2018-01-29T19:03:04.927Z,1.80
2018-01-29T19:08:09.157Z,1.60
2018-01-29T19:13:13.583Z,1.80
2018-01-29T19:18:17.056Z,1.60
2018-01-29T19:23:22.520Z,1.30
2018-01-29T19:28:25.595Z,1.50
2018-01-29T19:33:29.554Z,1.70
2018-01-29T19:38:34.509Z,1.53
2018-01-29T19:43:39.169Z,1.60
2018-01-29T19:48:43.747Z,1.50
2018-01-29T19:53:47.975Z,1.50
2018-01-29T19:58:51.078Z,1.98
2018-01-29T20:03:55.176Z,2.17
2018-01-29T20:08:59.015Z,2.20
2018-01-29T20:14:03.110Z,2.70
2018-01-29T20:19:07.539Z,2.50
2018-01-29T20:24:10.721Z,2.00
2018-01-29T20:29:14.626Z,1.90
2018-01-29T20:34:18.649Z,2.00
2018-01-29T20:39:22.145Z,1.90
2018-01-29T20:44:26.561Z,2.00
2018-01-29T20:49:30.435Z,1.80
2018-01-29T20:54:35.034Z,1.63
2018-01-29T20:59:39.500Z,1.67
2018-01-29T21:04:44.081Z,1.93
2018-01-29T21:09:48.072Z,2.20
2018-01-29T21:14:52.503Z,2.35
2018-01-29T21:19:56.584Z,2.27
2018-01-29T21:25:01.001Z,2.63
2018-01-29T21:30:04.997Z,2.30
2018-01-29T21:35:09.207Z,2.50
2018-01-29T21:40:12.290Z,2.40
2018-01-29T21:45:17.508Z,2.43
2018-01-29T21:50:20.577Z,1.73
2018-01-29T21:55:24.834Z,1.93
2018-01-29T22:00:27.899Z,1.40
2018-01-29T22:05:31.367Z,2.80
2018-01-29T22:10:34.879Z,6.27
2018-01-29T22:15:38.372Z,2.40
2018-01-29T22:20:42.642Z,2.00
2018-01-29T22:25:46.165Z,2.00
2018-01-29T22:30:50.389Z,1.77
2018-01-29T22:35:54.918Z,1.83
2018-01-29T22:40:59.752Z,1.90
2018-01-29T22:46:04.900Z,1.90
2018-01-29T22:51:07.968Z,2.40
2018-01-29T22:56:11.905Z,2.33
2018-01-29T23:01:15.768Z,2.83
2018-01-29T23:06:18.846Z,2.67
2018-01-29T23:11:23.068Z,2.67
2018-01-29T23:16:27.303Z,2.70
2018-01-29T23:21:30.417Z,2.50
2018-01-29T23:26:34.266Z,3.30
2018-01-29T23:31:39.304Z,3.23
2018-01-29T23:36:42.395Z,3.20
2018-01-29T23:41:46.162Z,3.10
2018-01-29T23:46:50.411Z,3.13
2018-01-29T23:51:54.323Z,3.30
2018-01-29T23:56:58.395Z,2.90
